createdAt,value
2023-05-10T00:01:15.355Z,0.10
2023-05-10T00:03:42.211Z,0.10
2023-05-10T00:06:09.190Z,0.00
2023-05-10T00:08:35.867Z,0.10
2023-05-10T00:11:02.749Z,0.10
2023-05-10T00:13:29.684Z,0.10
2023-05-10T00:15:56.126Z,0.10
2023-05-10T00:18:22.749Z,0.10
2023-05-10T00:20:49.796Z,0.13
2023-05-10T00:23:17.104Z,0.00
2023-05-10T00:28:10.191Z,0.10
2023-05-10T00:30:36.602Z,0.30
2023-05-10T00:33:03.892Z,0.20
2023-05-10T00:35:30.874Z,0.00
2023-05-10T00:37:57.453Z,0.10
2023-05-10T00:40:24.490Z,0.10
2023-05-10T00:45:17.334Z,0.00
2023-05-10T00:47:44.022Z,0.10
2023-05-10T00:50:11.147Z,0.00
2023-05-10T00:52:38.573Z,0.00
2023-05-10T00:55:05.956Z,0.10
2023-05-10T00:57:32.871Z,0.20
2023-05-10T01:00:00.483Z,0.20
2023-05-10T01:02:27.158Z,0.20
2023-05-10T01:04:54.187Z,0.10
2023-05-10T01:07:21.173Z,0.20
2023-05-10T01:09:47.901Z,0.10
2023-05-10T01:12:14.665Z,0.10
2023-05-10T01:14:41.327Z,0.10
2023-05-10T01:17:10.231Z,0.20
2023-05-10T01:19:38.512Z,0.00
2023-05-10T01:22:43.705Z,0.10
2023-05-10T01:25:16.057Z,0.60
2023-05-10T01:28:01.684Z,0.10
2023-05-10T01:30:43.215Z,0.40
2023-05-10T01:33:21.394Z,0.05
2023-05-10T01:36:02.886Z,0.10
2023-05-10T01:38:54.034Z,0.25
2023-05-10T01:41:48.870Z,0.30
2023-05-10T01:44:25.728Z,0.03
2023-05-10T01:47:06.058Z,0.20
2023-05-10T01:49:37.845Z,0.20
2023-05-10T01:52:11.621Z,0.22
2023-05-10T01:54:44.008Z,0.10
2023-05-10T01:57:14.747Z,0.50
2023-05-10T01:59:46.256Z,0.10
2023-05-10T02:02:14.612Z,0.35
2023-05-10T02:04:43.079Z,0.28
2023-05-10T02:07:10.619Z,0.20
2023-05-10T02:09:39.166Z,0.10
2023-05-10T02:12:07.305Z,0.13
2023-05-10T02:14:37.826Z,0.35
2023-05-10T02:17:07.542Z,0.13
2023-05-10T02:19:36.874Z,0.20
2023-05-10T02:22:04.711Z,0.30
2023-05-10T02:24:34.465Z,0.03
2023-05-10T02:27:03.272Z,0.20
2023-05-10T02:29:33.342Z,0.13
2023-05-10T02:32:01.301Z,0.20
2023-05-10T02:34:28.927Z,0.30
2023-05-10T02:36:57.184Z,0.30
2023-05-10T02:39:24.702Z,0.25
2023-05-10T02:41:53.268Z,0.10
2023-05-10T02:44:21.577Z,0.28
2023-05-10T02:46:48.894Z,0.30
2023-05-10T02:49:16.624Z,0.40
2023-05-10T02:51:57.488Z,0.13
2023-05-10T02:54:30.775Z,0.20
2023-05-10T02:57:06.133Z,0.40
2023-05-10T02:59:33.569Z,0.20
2023-05-10T03:02:01.666Z,0.20
2023-05-10T03:04:28.468Z,0.30
2023-05-10T03:06:55.485Z,0.35
2023-05-10T03:09:22.411Z,0.25
2023-05-10T03:12:24.997Z,0.30
2023-05-10T03:15:07.095Z,0.52
2023-05-10T03:17:41.088Z,0.22
2023-05-10T03:20:12.552Z,0.10
2023-05-10T03:22:45.433Z,0.40
2023-05-10T03:25:13.186Z,0.20
2023-05-10T03:27:42.827Z,0.25
2023-05-10T03:30:12.684Z,0.38
2023-05-10T03:32:39.999Z,0.30
2023-05-10T03:35:10.809Z,0.20
2023-05-10T03:37:37.648Z,0.15
2023-05-10T03:40:04.980Z,0.28
2023-05-10T03:42:32.515Z,0.43
2023-05-10T03:44:58.919Z,0.22
2023-05-10T03:47:25.583Z,0.20
2023-05-10T03:49:52.054Z,0.28
2023-05-10T03:52:19.042Z,0.22
2023-05-10T03:54:45.827Z,0.20
2023-05-10T03:57:12.390Z,0.50
2023-05-10T03:59:38.910Z,0.30
2023-05-10T04:02:05.434Z,0.43
2023-05-10T04:04:32.408Z,0.20
2023-05-10T04:09:25.525Z,0.40
2023-05-10T04:11:52.096Z,0.60
2023-05-10T04:14:18.975Z,0.40
2023-05-10T04:16:45.889Z,0.65
2023-05-10T04:19:12.579Z,1.50
2023-05-10T04:21:39.090Z,0.68
2023-05-10T04:24:05.905Z,0.38
2023-05-10T04:28:59.002Z,1.30
2023-05-10T04:31:25.716Z,1.30
2023-05-10T04:33:53.416Z,0.90
2023-05-10T04:36:19.915Z,0.73
2023-05-10T04:38:46.302Z,0.65
2023-05-10T04:41:13.057Z,0.80
2023-05-10T04:43:39.809Z,1.02
2023-05-10T04:46:07.736Z,0.65
2023-05-10T04:48:34.532Z,1.17
2023-05-10T04:51:01.762Z,1.13
2023-05-10T04:53:28.384Z,0.90
2023-05-10T04:55:54.891Z,1.10
2023-05-10T04:58:21.302Z,0.90
2023-05-10T05:00:47.892Z,0.70
2023-05-10T05:03:14.989Z,1.30
2023-05-10T05:08:08.082Z,1.00
2023-05-10T05:10:34.656Z,1.00
2023-05-10T05:15:28.299Z,1.13
2023-05-10T05:17:54.972Z,0.80
2023-05-10T05:20:22.107Z,0.90
2023-05-10T05:22:49.262Z,0.98
2023-05-10T05:27:43.424Z,0.90
2023-05-10T05:30:10.479Z,0.85
2023-05-10T05:32:37.274Z,0.93
2023-05-10T05:35:03.779Z,0.82
2023-05-10T05:37:30.590Z,0.65
2023-05-10T05:39:57.148Z,1.05
2023-05-10T05:42:23.821Z,1.00
2023-05-10T05:44:50.303Z,1.08
2023-05-10T05:47:16.877Z,0.70
2023-05-10T05:49:43.390Z,1.05
2023-05-10T05:52:09.845Z,0.70
2023-05-10T05:54:36.291Z,0.80
2023-05-10T05:57:02.728Z,0.90
2023-05-10T05:59:29.524Z,0.57
2023-05-10T06:01:56.754Z,0.60
2023-05-10T06:06:50.559Z,0.70
2023-05-10T06:09:17.661Z,0.70
2023-05-10T06:11:44.647Z,0.65
2023-05-10T06:14:11.417Z,0.63
2023-05-10T06:16:37.949Z,0.65
2023-05-10T06:19:04.823Z,0.70
2023-05-10T06:23:59.856Z,0.70
2023-05-10T06:26:26.563Z,1.00
2023-05-10T06:31:19.530Z,0.98
2023-05-10T06:33:46.030Z,0.85
2023-05-10T06:36:12.991Z,0.80
2023-05-10T06:38:39.995Z,0.82
2023-05-10T06:43:33.201Z,0.80
2023-05-10T06:48:26.492Z,1.38
2023-05-10T06:53:19.729Z,0.55
2023-05-10T06:55:46.484Z,0.75
2023-05-10T06:58:13.562Z,0.90
2023-05-10T07:00:41.517Z,0.85
2023-05-10T07:03:08.752Z,1.08
2023-05-10T07:08:02.785Z,1.15
2023-05-10T07:10:29.366Z,1.00
2023-05-10T07:15:22.711Z,0.85
2023-05-10T07:17:49.603Z,1.02
2023-05-10T07:20:16.520Z,1.02
2023-05-10T07:25:10.443Z,1.52
2023-05-10T07:27:37.368Z,1.50
2023-05-10T07:32:32.766Z,1.55
2023-05-10T07:35:00.026Z,4.10
2023-05-10T07:37:26.592Z,2.30
2023-05-10T07:39:53.088Z,2.10
2023-05-10T07:42:19.728Z,1.80
2023-05-10T07:44:46.746Z,2.00
2023-05-10T07:47:13.415Z,1.80
2023-05-10T07:49:40.305Z,1.80
2023-05-10T07:52:06.908Z,1.73
2023-05-10T07:54:34.629Z,1.80
2023-05-10T07:57:01.415Z,2.30
2023-05-10T08:01:54.523Z,2.17
2023-05-10T08:04:21.127Z,1.58
2023-05-10T08:06:48.482Z,1.77
2023-05-10T08:09:15.010Z,1.98
2023-05-10T08:11:42.154Z,1.80
2023-05-10T08:16:35.479Z,2.30
2023-05-10T08:19:02.306Z,1.83
2023-05-10T08:21:29.564Z,2.13
2023-05-10T08:26:22.735Z,1.65
2023-05-10T08:28:50.920Z,2.22
2023-05-10T08:31:17.540Z,1.92
2023-05-10T08:33:44.866Z,1.85
2023-05-10T08:36:11.901Z,3.33
2023-05-10T08:38:38.667Z,2.03
2023-05-10T08:41:06.320Z,1.42
2023-05-10T08:43:33.417Z,1.80
2023-05-10T08:46:03.999Z,1.90
2023-05-10T08:48:31.813Z,1.98
2023-05-10T08:51:01.641Z,1.92
2023-05-10T08:53:32.011Z,1.75
2023-05-10T08:55:58.751Z,2.28
2023-05-10T08:58:26.110Z,1.70
2023-05-10T09:00:53.343Z,1.58
2023-05-10T09:03:20.073Z,2.40
2023-05-10T09:05:47.469Z,1.98
2023-05-10T09:08:17.115Z,1.75
2023-05-10T09:10:48.371Z,1.48
2023-05-10T09:13:18.725Z,0.20
2023-05-10T09:15:46.442Z,0.30
2023-05-10T09:18:13.716Z,0.30
2023-05-10T09:20:41.041Z,0.20
2023-05-10T09:23:08.371Z,0.20
2023-05-10T09:25:35.535Z,0.30
2023-05-10T09:28:02.944Z,0.10
2023-05-10T09:30:34.788Z,0.20
2023-05-10T09:33:20.047Z,0.10
2023-05-10T09:35:53.393Z,0.17
2023-05-10T09:38:19.974Z,0.32
2023-05-10T09:40:56.881Z,0.15
2023-05-10T09:43:23.246Z,0.30
2023-05-10T09:45:52.430Z,0.10
2023-05-10T09:48:19.530Z,0.10
2023-05-10T09:50:58.149Z,0.08
2023-05-10T09:53:25.994Z,0.30
2023-05-10T09:55:53.148Z,0.20
2023-05-10T10:00:53.027Z,0.10
2023-05-10T10:03:20.932Z,0.55
2023-05-10T10:05:49.261Z,0.43
2023-05-10T10:08:18.023Z,0.40
2023-05-10T10:10:47.503Z,0.25
2023-05-10T10:13:15.063Z,0.52
2023-05-10T10:15:43.593Z,0.10
2023-05-10T10:18:14.006Z,0.50
2023-05-10T10:20:41.208Z,0.30
2023-05-10T10:23:09.006Z,0.20
2023-05-10T10:25:36.200Z,0.20
2023-05-10T10:28:18.094Z,0.20
2023-05-10T10:30:47.875Z,0.25
2023-05-10T10:33:48.073Z,0.20
2023-05-10T10:36:16.205Z,0.20
2023-05-10T10:38:42.796Z,0.20
2023-05-10T10:41:12.961Z,0.30
2023-05-10T10:43:39.649Z,0.32
2023-05-10T10:46:15.559Z,0.20
2023-05-10T10:48:48.125Z,0.40
2023-05-10T10:51:15.356Z,0.43
2023-05-10T10:53:42.083Z,0.20
2023-05-10T10:56:11.204Z,0.40
2023-05-10T10:58:39.579Z,0.65
2023-05-10T11:01:19.360Z,0.32
2023-05-10T11:04:01.702Z,0.30
2023-05-10T11:06:35.764Z,0.30
2023-05-10T11:09:10.171Z,0.40
2023-05-10T11:11:49.073Z,0.20
2023-05-10T11:16:48.461Z,0.52
2023-05-10T11:19:17.401Z,0.52
2023-05-10T11:21:49.564Z,0.20
2023-05-10T11:24:20.960Z,0.20
2023-05-10T11:26:52.377Z,0.20
2023-05-10T11:29:19.213Z,0.10
2023-05-10T11:31:47.603Z,0.25
2023-05-10T11:34:39.521Z,0.20
2023-05-10T11:37:05.906Z,0.30
2023-05-10T11:39:34.403Z,0.40
2023-05-10T11:42:01.263Z,0.43
2023-05-10T11:44:32.829Z,0.22
2023-05-10T11:47:01.354Z,0.90
2023-05-10T11:49:28.358Z,0.25
2023-05-10T11:52:04.988Z,0.50
2023-05-10T11:54:31.951Z,0.85
2023-05-10T11:56:58.789Z,0.22
2023-05-10T12:01:53.134Z,0.50
2023-05-10T12:04:20.462Z,0.60
2023-05-10T12:06:47.619Z,0.40
2023-05-10T12:09:15.248Z,0.38
2023-05-10T12:11:44.219Z,0.50
2023-05-10T12:14:11.761Z,0.43
2023-05-10T12:16:38.814Z,0.50
2023-05-10T12:19:06.412Z,0.20
2023-05-10T12:21:33.604Z,0.22
2023-05-10T12:26:29.060Z,0.30
2023-05-10T12:28:56.552Z,0.22
2023-05-10T12:31:23.300Z,0.30
2023-05-10T12:33:50.392Z,0.50
2023-05-10T12:38:48.830Z,0.50
2023-05-10T12:41:19.430Z,0.50
2023-05-10T12:43:49.019Z,0.30
2023-05-10T12:46:18.081Z,0.60
2023-05-10T12:48:46.391Z,0.60
2023-05-10T12:51:16.240Z,0.30
2023-05-10T12:53:45.620Z,0.38
2023-05-10T12:56:13.231Z,0.77
2023-05-10T12:58:39.826Z,0.52
2023-05-10T13:01:06.941Z,0.70
2023-05-10T13:03:33.535Z,0.40
2023-05-10T13:06:00.159Z,0.43
2023-05-10T13:08:27.428Z,0.45
2023-05-10T13:10:54.360Z,0.45
2023-05-10T13:13:21.585Z,0.45
2023-05-10T13:18:14.817Z,0.40
2023-05-10T13:23:09.865Z,0.50
2023-05-10T13:25:39.271Z,0.45
2023-05-10T13:28:05.978Z,0.30
2023-05-10T13:32:59.169Z,0.60
2023-05-10T13:35:27.229Z,0.82
2023-05-10T13:37:54.526Z,1.50
2023-05-10T13:40:21.146Z,0.45
2023-05-10T13:42:49.196Z,0.80
2023-05-10T13:45:15.883Z,0.60
2023-05-10T13:47:42.810Z,0.70
2023-05-10T13:52:38.442Z,0.57
2023-05-10T13:55:05.493Z,0.90
2023-05-10T13:57:32.208Z,0.63
2023-05-10T13:59:58.977Z,0.60
2023-05-10T14:02:28.384Z,0.70
2023-05-10T14:04:54.893Z,0.60
2023-05-10T14:07:21.360Z,0.60
2023-05-10T14:09:47.982Z,0.50
2023-05-10T14:12:15.545Z,0.35
2023-05-10T14:14:42.262Z,0.47
2023-05-10T14:17:10.129Z,0.55
2023-05-10T14:19:38.419Z,0.52
2023-05-10T14:22:04.968Z,0.68
2023-05-10T14:24:31.525Z,0.30
2023-05-10T14:26:58.138Z,0.30
2023-05-10T14:29:24.880Z,0.32
2023-05-10T14:31:51.545Z,0.73
2023-05-10T14:34:18.243Z,0.40
2023-05-10T14:36:45.538Z,0.60
2023-05-10T14:39:13.873Z,0.13
2023-05-10T14:41:44.024Z,0.28
2023-05-10T14:44:13.305Z,0.40
2023-05-10T14:46:40.455Z,0.30
2023-05-10T14:49:07.348Z,0.40
2023-05-10T14:51:33.884Z,0.68
2023-05-10T14:54:00.506Z,0.40
2023-05-10T14:56:27.091Z,0.30
2023-05-10T14:58:53.775Z,0.20
2023-05-10T15:01:20.929Z,0.30
2023-05-10T15:03:48.187Z,0.20
2023-05-10T15:06:17.012Z,0.20
2023-05-10T15:08:44.184Z,0.10
2023-05-10T15:11:10.665Z,0.15
2023-05-10T15:13:37.153Z,0.32
2023-05-10T15:16:03.701Z,0.00
2023-05-10T15:20:56.724Z,0.00
2023-05-10T15:25:51.280Z,0.15
2023-05-10T15:28:18.287Z,0.10
2023-05-10T15:30:44.979Z,0.10
2023-05-10T15:33:12.033Z,0.03
2023-05-10T15:35:40.413Z,0.00
2023-05-10T15:38:07.000Z,0.10
2023-05-10T15:43:00.053Z,0.13
2023-05-10T15:45:27.392Z,0.00
2023-05-10T15:47:53.995Z,0.20
2023-05-10T15:50:20.470Z,0.68
2023-05-10T15:52:47.436Z,0.15
2023-05-10T15:55:14.220Z,0.10
2023-05-10T15:57:42.348Z,0.17
2023-05-10T16:00:12.987Z,0.00
2023-05-10T16:02:40.834Z,0.22
2023-05-10T16:05:08.306Z,0.10
2023-05-10T16:07:35.298Z,0.10
2023-05-10T16:10:04.065Z,0.50
2023-05-10T16:12:31.346Z,0.15
2023-05-10T16:14:58.051Z,0.32
2023-05-10T16:19:51.213Z,0.03
2023-05-10T16:22:18.208Z,0.20
2023-05-10T16:24:44.616Z,0.10
2023-05-10T16:27:13.147Z,0.20
2023-05-10T16:29:39.801Z,0.28
2023-05-10T16:32:06.955Z,0.13
2023-05-10T16:34:33.560Z,0.17
2023-05-10T16:37:00.138Z,0.10
2023-05-10T16:39:27.120Z,0.20
2023-05-10T16:44:21.070Z,0.20
2023-05-10T16:46:50.732Z,0.30
2023-05-10T16:49:17.472Z,0.30
2023-05-10T16:54:10.354Z,0.30
2023-05-10T16:56:36.829Z,0.30
2023-05-10T16:59:03.427Z,0.30
2023-05-10T17:01:30.304Z,0.70
2023-05-10T17:06:23.615Z,0.50
2023-05-10T17:08:50.405Z,0.28
2023-05-10T17:13:44.064Z,0.38
2023-05-10T17:18:40.521Z,0.40
2023-05-10T17:21:07.088Z,0.70
2023-05-10T17:23:33.668Z,0.30
2023-05-10T17:26:01.665Z,0.40
2023-05-10T17:28:28.304Z,0.60
2023-05-10T17:30:58.154Z,0.60
2023-05-10T17:33:24.919Z,0.60
2023-05-10T17:35:52.073Z,0.47
2023-05-10T17:38:19.066Z,0.60
2023-05-10T17:40:45.679Z,0.80
2023-05-10T17:43:12.140Z,1.30
2023-05-10T17:45:38.574Z,0.60
2023-05-10T17:50:32.947Z,0.70
2023-05-10T17:53:00.025Z,0.65
2023-05-10T17:55:27.148Z,0.60
2023-05-10T17:57:53.881Z,0.90
2023-05-10T18:00:20.494Z,0.60
2023-05-10T18:02:46.930Z,0.95
2023-05-10T18:07:40.601Z,0.70
2023-05-10T18:10:07.793Z,0.60
2023-05-10T18:12:34.675Z,0.70
2023-05-10T18:15:01.412Z,0.50
2023-05-10T18:17:27.866Z,0.50
2023-05-10T18:22:21.009Z,0.70
2023-05-10T18:24:47.884Z,0.90
2023-05-10T18:29:40.932Z,1.20
2023-05-10T18:32:07.651Z,0.70
2023-05-10T18:34:34.413Z,0.95
2023-05-10T18:39:27.515Z,1.30
2023-05-10T18:41:53.981Z,1.02
2023-05-10T18:44:21.842Z,1.00
2023-05-10T18:46:48.380Z,0.88
2023-05-10T18:51:41.598Z,0.70
2023-05-10T18:54:08.194Z,1.00
2023-05-10T18:56:34.570Z,0.80
2023-05-10T18:59:01.118Z,1.17
2023-05-10T19:01:27.555Z,1.30
2023-05-10T19:03:53.927Z,2.25
2023-05-10T19:06:20.799Z,1.13
2023-05-10T19:08:47.614Z,1.23
2023-05-10T19:11:14.126Z,1.00
2023-05-10T19:13:40.770Z,1.33
2023-05-10T19:16:15.727Z,1.30
2023-05-10T19:18:43.295Z,1.55
2023-05-10T19:21:11.318Z,1.40
2023-05-10T19:23:48.239Z,1.30
2023-05-10T19:26:14.998Z,1.00
2023-05-10T19:31:08.502Z,0.80
2023-05-10T19:33:35.202Z,1.20
2023-05-10T19:36:02.147Z,1.48
2023-05-10T19:38:28.586Z,1.50
2023-05-10T19:40:59.329Z,1.00
2023-05-10T19:43:27.148Z,1.05
2023-05-10T19:45:54.766Z,1.45
2023-05-10T19:48:21.711Z,1.38
2023-05-10T19:50:48.135Z,1.25
2023-05-10T19:53:14.811Z,0.77
2023-05-10T19:55:41.534Z,1.10
2023-05-10T20:00:35.743Z,1.45
2023-05-10T20:03:02.535Z,1.23
2023-05-10T20:07:56.431Z,1.45
2023-05-10T20:12:52.833Z,1.40
2023-05-10T20:15:30.395Z,1.60
2023-05-10T20:18:09.800Z,1.20
2023-05-10T20:20:36.379Z,1.48
2023-05-10T20:25:29.811Z,0.98
2023-05-10T20:30:23.070Z,1.65
2023-05-10T20:35:19.536Z,1.13
2023-05-10T20:37:48.587Z,1.15
2023-05-10T20:40:15.792Z,1.10
2023-05-10T20:42:43.357Z,1.10
2023-05-10T20:45:12.579Z,1.63
2023-05-10T20:47:39.954Z,2.00
2023-05-10T20:50:07.169Z,2.15
2023-05-10T20:52:34.127Z,1.88
2023-05-10T20:55:00.697Z,1.75
2023-05-10T20:57:27.433Z,1.40
2023-05-10T20:59:54.698Z,1.40
2023-05-10T21:02:21.144Z,1.80
2023-05-10T21:04:50.130Z,1.45
2023-05-10T21:07:17.033Z,1.75
2023-05-10T21:09:43.946Z,1.88
2023-05-10T21:12:10.820Z,1.52
2023-05-10T21:17:04.229Z,1.70
2023-05-10T21:19:30.701Z,1.70
2023-05-10T21:21:58.905Z,0.90
2023-05-10T21:24:25.837Z,0.93
2023-05-10T21:29:19.008Z,0.90
2023-05-10T21:31:45.597Z,1.10
2023-05-10T21:34:13.817Z,1.55
2023-05-10T21:36:40.511Z,1.30
2023-05-10T21:41:34.086Z,2.03
2023-05-10T21:44:00.607Z,1.40
2023-05-10T21:46:27.052Z,1.40
2023-05-10T21:48:53.851Z,2.13
2023-05-10T21:53:48.774Z,1.90
2023-05-10T21:56:15.655Z,1.85
2023-05-10T21:58:42.569Z,2.42
2023-05-10T22:01:09.061Z,2.38
2023-05-10T22:03:35.799Z,1.92
2023-05-10T22:06:02.577Z,2.65
2023-05-10T22:08:28.973Z,2.60
2023-05-10T22:10:55.712Z,2.67
2023-05-10T22:13:22.182Z,2.92
2023-05-10T22:15:49.300Z,2.35
2023-05-10T22:18:15.890Z,2.85
2023-05-10T22:20:45.376Z,2.30
2023-05-10T22:23:13.010Z,3.35
2023-05-10T22:25:39.521Z,3.67
2023-05-10T22:30:33.926Z,2.92
2023-05-10T22:33:00.522Z,3.10
2023-05-10T22:35:27.200Z,2.30
2023-05-10T22:37:54.393Z,2.20
2023-05-10T22:40:21.459Z,2.20
2023-05-10T22:42:47.915Z,2.20
2023-05-10T22:45:14.528Z,1.98
2023-05-10T22:47:41.195Z,2.03
2023-05-10T22:50:09.169Z,2.15
2023-05-10T22:52:38.679Z,1.83
2023-05-10T22:55:06.845Z,1.65
2023-05-10T22:57:34.134Z,1.58
2023-05-10T23:00:00.748Z,1.98
2023-05-10T23:02:27.212Z,1.70
2023-05-10T23:04:54.150Z,1.20
2023-05-10T23:07:20.967Z,1.98
2023-05-10T23:09:47.613Z,0.85
2023-05-10T23:12:14.285Z,0.90
2023-05-10T23:14:41.668Z,1.40
2023-05-10T23:17:08.446Z,0.55
2023-05-10T23:22:01.572Z,0.40
2023-05-10T23:24:28.970Z,0.43
2023-05-10T23:26:55.477Z,0.40
2023-05-10T23:29:23.789Z,0.45
2023-05-10T23:31:51.191Z,0.50
2023-05-10T23:34:18.093Z,0.38
2023-05-10T23:36:44.596Z,0.88
2023-05-10T23:39:11.970Z,0.10
2023-05-10T23:41:38.442Z,0.20
2023-05-10T23:44:05.276Z,0.17
2023-05-10T23:46:32.039Z,0.20
2023-05-10T23:48:58.479Z,0.20
2023-05-10T23:51:25.408Z,0.20
2023-05-10T23:53:51.860Z,0.25
2023-05-10T23:56:18.541Z,0.22
2023-05-10T23:58:46.259Z,0.38
